createdAt,value
2018-07-22T00:00:41.364Z,951.86
2018-07-22T00:01:41.358Z,951.85
2018-07-22T00:02:41.356Z,951.84
2018-07-22T00:03:41.354Z,951.85
2018-07-22T00:04:41.348Z,951.84
2018-07-22T00:05:41.348Z,951.8
2018-07-22T00:06:41.341Z,951.8
2018-07-22T00:07:41.339Z,951.82
2018-07-22T00:08:41.336Z,951.81
2018-07-22T00:09:41.334Z,951.85
2018-07-22T00:10:41.327Z,951.81
2018-07-22T00:11:41.324Z,951.82
2018-07-22T00:12:41.321Z,951.8
2018-07-22T00:13:41.319Z,951.84
2018-07-22T00:14:41.314Z,951.83
2018-07-22T00:15:41.312Z,951.84
2018-07-22T00:16:41.308Z,951.85
2018-07-22T00:17:41.303Z,951.82
2018-07-22T00:18:41.301Z,951.84
2018-07-22T00:19:41.295Z,951.8
2018-07-22T00:20:41.293Z,951.82
2018-07-22T00:21:41.290Z,951.81
2018-07-22T00:22:41.288Z,951.8
2018-07-22T00:23:41.283Z,951.8
2018-07-22T00:24:41.280Z,951.81
2018-07-22T00:25:41.276Z,951.83
2018-07-22T00:26:41.271Z,951.83
2018-07-22T00:27:41.268Z,951.81
2018-07-22T00:28:41.264Z,951.82
2018-07-22T00:29:41.264Z,951.79
2018-07-22T00:30:41.261Z,951.81
2018-07-22T00:31:41.254Z,951.79
2018-07-22T00:32:41.252Z,951.8
2018-07-22T00:33:41.249Z,951.76
2018-07-22T00:34:41.243Z,951.77
2018-07-22T00:35:41.241Z,951.77
2018-07-22T00:36:41.237Z,951.75
2018-07-22T00:37:41.234Z,951.76
2018-07-22T00:38:41.231Z,951.74
2018-07-22T00:39:41.226Z,951.73
2018-07-22T00:40:41.225Z,951.73
2018-07-22T00:41:41.221Z,951.7
2018-07-22T00:42:41.217Z,951.74
2018-07-22T00:43:41.212Z,951.74
2018-07-22T00:44:41.209Z,951.78
2018-07-22T00:45:41.205Z,951.74
2018-07-22T00:46:41.203Z,951.74
2018-07-22T00:47:41.199Z,951.75
2018-07-22T00:48:41.197Z,951.72
2018-07-22T00:49:41.191Z,951.72
2018-07-22T00:50:41.189Z,951.76
2018-07-22T00:51:41.185Z,951.74
2018-07-22T00:52:41.181Z,951.74
2018-07-22T00:53:41.177Z,951.77
2018-07-22T00:54:41.174Z,951.77
2018-07-22T00:55:41.173Z,951.79
2018-07-22T00:56:41.167Z,951.74
2018-07-22T00:57:41.164Z,951.76
2018-07-22T00:58:41.161Z,951.76
2018-07-22T00:59:41.158Z,951.82
2018-07-22T01:00:41.157Z,951.84
2018-07-22T01:01:41.151Z,951.83
2018-07-22T01:02:41.147Z,951.86
2018-07-22T01:03:41.143Z,951.85
2018-07-22T01:04:41.141Z,951.83
2018-07-22T01:05:41.135Z,951.84
2018-07-22T01:06:41.132Z,951.83
2018-07-22T01:07:41.129Z,951.83
2018-07-22T01:08:41.133Z,951.82
2018-07-22T01:09:41.124Z,951.81
2018-07-22T01:10:41.118Z,951.83
2018-07-22T01:11:41.115Z,951.82
2018-07-22T01:12:41.112Z,951.84
2018-07-22T01:13:41.110Z,951.86
2018-07-22T01:14:41.103Z,951.8
2018-07-22T01:15:41.104Z,951.82
2018-07-22T01:16:41.096Z,951.83
2018-07-22T01:17:41.092Z,951.81
2018-07-22T01:18:41.089Z,951.8
2018-07-22T01:19:41.087Z,951.77
2018-07-22T01:20:41.083Z,951.75
2018-07-22T01:21:41.081Z,951.75
2018-07-22T01:22:41.075Z,951.77
2018-07-22T01:23:41.073Z,951.74
2018-07-22T01:24:41.070Z,951.69
2018-07-22T01:25:41.065Z,951.71
2018-07-22T01:26:41.062Z,951.67
2018-07-22T01:27:41.061Z,951.71
2018-07-22T01:28:41.054Z,951.73
2018-07-22T01:29:41.049Z,951.72
2018-07-22T01:30:41.047Z,951.71
2018-07-22T01:31:41.044Z,951.7
2018-07-22T01:32:41.040Z,951.73
2018-07-22T01:33:41.040Z,951.7
2018-07-22T01:34:41.033Z,951.72
2018-07-22T01:35:41.030Z,951.68
2018-07-22T01:36:41.023Z,951.72
2018-07-22T01:37:41.021Z,951.7
2018-07-22T01:38:41.018Z,951.71
2018-07-22T01:39:41.014Z,951.68
2018-07-22T01:40:41.009Z,951.68
2018-07-22T01:41:41.009Z,951.72
2018-07-22T01:42:41.005Z,951.71
2018-07-22T01:43:41.001Z,951.72
2018-07-22T01:44:40.996Z,951.69
2018-07-22T01:45:40.992Z,951.71
2018-07-22T01:46:40.989Z,951.72
2018-07-22T01:47:40.986Z,951.71
2018-07-22T01:48:40.980Z,951.7
2018-07-22T01:49:40.979Z,951.71
2018-07-22T01:50:40.973Z,951.69
2018-07-22T01:51:40.969Z,951.73
2018-07-22T01:52:40.967Z,951.69
2018-07-22T01:53:40.964Z,951.65
2018-07-22T01:54:40.958Z,951.66
2018-07-22T01:55:40.957Z,951.63
2018-07-22T01:56:40.952Z,951.66
2018-07-22T01:57:40.952Z,951.68
2018-07-22T01:58:40.945Z,951.64
2018-07-22T01:59:40.941Z,951.62
2018-07-22T02:00:40.938Z,951.62
2018-07-22T02:01:40.956Z,951.64
2018-07-22T02:02:40.930Z,951.69
2018-07-22T02:03:40.926Z,951.63
2018-07-22T02:04:40.923Z,951.65
2018-07-22T02:05:40.918Z,951.67
2018-07-22T02:06:40.914Z,951.68
2018-07-22T02:07:40.912Z,951.68
2018-07-22T02:08:40.909Z,951.71
2018-07-22T02:09:40.903Z,951.73
2018-07-22T02:10:40.939Z,951.69
2018-07-22T02:11:40.897Z,951.68
2018-07-22T02:12:40.898Z,951.65
2018-07-22T02:13:40.889Z,951.69
2018-07-22T02:14:40.884Z,951.68
2018-07-22T02:15:40.882Z,951.71
2018-07-22T02:16:40.877Z,951.68
2018-07-22T02:17:40.874Z,951.71
2018-07-22T02:18:40.869Z,951.67
2018-07-22T02:19:40.867Z,951.69
2018-07-22T02:20:40.861Z,951.69
2018-07-22T02:21:40.858Z,951.67
2018-07-22T02:22:40.856Z,951.69
2018-07-22T02:23:40.849Z,951.68
2018-07-22T02:24:40.848Z,951.65
2018-07-22T02:25:40.844Z,951.66
2018-07-22T02:26:40.840Z,951.66
2018-07-22T02:27:40.838Z,951.68
2018-07-22T02:28:40.832Z,951.72
2018-07-22T02:29:40.830Z,951.71
2018-07-22T02:30:40.825Z,951.72
2018-07-22T02:31:40.820Z,951.72
2018-07-22T02:32:40.817Z,951.72
2018-07-22T02:33:40.814Z,951.71
2018-07-22T02:34:40.809Z,951.71
2018-07-22T02:35:40.806Z,951.68
2018-07-22T02:36:40.801Z,951.69
2018-07-22T02:37:40.798Z,951.7
2018-07-22T02:38:40.793Z,951.69
2018-07-22T02:39:40.791Z,951.69
2018-07-22T02:40:40.787Z,951.69
2018-07-22T02:41:40.783Z,951.69
2018-07-22T02:42:40.780Z,951.69
2018-07-22T02:43:40.775Z,951.7
2018-07-22T02:44:40.777Z,951.74
2018-07-22T02:45:40.767Z,951.67
2018-07-22T02:46:40.764Z,951.7
2018-07-22T02:47:40.760Z,951.72
2018-07-22T02:48:40.758Z,951.69
2018-07-22T02:49:40.753Z,951.72
2018-07-22T02:50:40.757Z,951.7
2018-07-22T02:51:40.748Z,951.69
2018-07-22T02:52:40.739Z,951.71
2018-07-22T02:53:40.740Z,951.72
2018-07-22T02:54:40.732Z,951.73
2018-07-22T02:55:40.730Z,951.72
2018-07-22T02:56:40.725Z,951.76
2018-07-22T02:57:40.724Z,951.74
2018-07-22T02:58:40.719Z,951.76
2018-07-22T02:59:40.715Z,951.77
2018-07-22T03:00:40.711Z,951.74
2018-07-22T03:01:40.706Z,951.73
2018-07-22T03:02:40.704Z,951.73
2018-07-22T03:03:40.699Z,951.75
2018-07-22T03:04:40.695Z,951.72
2018-07-22T03:05:40.692Z,951.71
2018-07-22T03:06:40.690Z,951.73
2018-07-22T03:07:40.682Z,951.7
2018-07-22T03:08:40.679Z,951.7
2018-07-22T03:09:40.675Z,951.7
2018-07-22T03:10:40.672Z,951.68
2018-07-22T03:11:40.667Z,951.66
2018-07-22T03:12:40.665Z,951.7
2018-07-22T03:13:40.661Z,951.65
2018-07-22T03:14:40.656Z,951.66
2018-07-22T03:15:40.652Z,951.69
2018-07-22T03:16:40.649Z,951.64
2018-07-22T03:17:40.644Z,951.65
2018-07-22T03:18:40.641Z,951.64
2018-07-22T03:19:40.636Z,951.69
2018-07-22T03:20:40.634Z,951.68
2018-07-22T03:21:40.629Z,951.71
2018-07-22T03:22:40.624Z,951.67
2018-07-22T03:23:40.620Z,951.7
2018-07-22T03:24:40.618Z,951.67
2018-07-22T03:25:40.613Z,951.66
2018-07-22T03:26:40.608Z,951.68
2018-07-22T03:27:40.604Z,951.65
2018-07-22T03:28:40.601Z,951.63
2018-07-22T03:29:40.599Z,951.65
2018-07-22T03:30:40.591Z,951.61
2018-07-22T03:31:40.590Z,951.61
2018-07-22T03:32:40.584Z,951.65
2018-07-22T03:33:40.585Z,951.64
2018-07-22T03:34:40.576Z,951.61
2018-07-22T03:35:40.573Z,951.63
2018-07-22T03:36:40.570Z,951.64
2018-07-22T03:37:40.568Z,951.61
2018-07-22T03:38:40.562Z,951.63
2018-07-22T03:39:40.557Z,951.65
2018-07-22T03:40:40.553Z,951.65
2018-07-22T03:41:40.549Z,951.66
2018-07-22T03:42:40.545Z,951.68
2018-07-22T03:43:40.542Z,951.67
2018-07-22T03:44:40.536Z,951.65
2018-07-22T03:45:40.534Z,951.63
2018-07-22T03:46:40.529Z,951.7
2018-07-22T03:47:40.525Z,951.69
2018-07-22T03:48:40.525Z,951.71
2018-07-22T03:49:40.517Z,951.75
2018-07-22T03:50:40.514Z,951.7
2018-07-22T03:51:40.508Z,951.74
2018-07-22T03:52:40.507Z,951.74
2018-07-22T03:53:40.501Z,951.71
2018-07-22T03:54:40.501Z,951.72
2018-07-22T03:55:40.492Z,951.75
2018-07-22T03:56:40.490Z,951.75
2018-07-22T03:57:40.485Z,951.73
2018-07-22T03:58:40.481Z,951.76
2018-07-22T03:59:40.476Z,951.78
2018-07-22T04:00:40.473Z,951.78
2018-07-22T04:01:40.470Z,951.75
2018-07-22T04:02:40.465Z,951.77
2018-07-22T04:03:40.461Z,951.76
2018-07-22T04:04:40.464Z,951.77
2018-07-22T04:05:40.453Z,951.76
2018-07-22T04:06:40.449Z,951.78
2018-07-22T04:07:40.448Z,951.75
2018-07-22T04:08:40.441Z,951.77
2018-07-22T04:09:40.438Z,951.79
2018-07-22T04:10:40.434Z,951.78
2018-07-22T04:11:40.430Z,951.75
2018-07-22T04:12:40.426Z,951.77
2018-07-22T04:13:40.421Z,951.79
2018-07-22T04:14:40.417Z,951.78
2018-07-22T04:15:40.414Z,951.83
2018-07-22T04:16:40.411Z,951.83
2018-07-22T04:17:40.407Z,951.86
2018-07-22T04:18:40.403Z,951.84
2018-07-22T04:19:40.398Z,951.83
2018-07-22T04:20:40.395Z,951.82
2018-07-22T04:21:40.398Z,951.83
2018-07-22T04:22:40.387Z,951.84
2018-07-22T04:23:40.383Z,951.82
2018-07-22T04:24:40.379Z,951.83
2018-07-22T04:25:40.380Z,951.83
2018-07-22T04:26:40.372Z,951.85
2018-07-22T04:27:40.366Z,951.82
2018-07-22T04:28:40.363Z,951.83
2018-07-22T04:29:40.359Z,951.82
2018-07-22T04:30:40.354Z,951.84
2018-07-22T04:31:40.351Z,951.87
2018-07-22T04:32:40.350Z,951.84
2018-07-22T04:33:40.342Z,951.84
2018-07-22T04:34:40.342Z,951.84
2018-07-22T04:35:40.335Z,951.82
2018-07-22T04:36:40.334Z,951.87
2018-07-22T04:37:40.328Z,951.86
2018-07-22T04:38:40.322Z,951.86
2018-07-22T04:39:40.320Z,951.86
2018-07-22T04:40:40.316Z,951.85
2018-07-22T04:41:40.316Z,951.88
2018-07-22T04:42:40.306Z,951.87
2018-07-22T04:43:40.303Z,951.91
2018-07-22T04:44:40.300Z,951.97
2018-07-22T04:45:40.295Z,951.99
2018-07-22T04:46:40.291Z,951.97
2018-07-22T04:47:40.289Z,952.01
2018-07-22T04:48:40.286Z,952.03
2018-07-22T04:49:40.280Z,952.02
2018-07-22T04:50:40.277Z,952.06
2018-07-22T04:51:40.271Z,952.06
2018-07-22T04:52:40.269Z,952.06
2018-07-22T04:53:40.361Z,952.06
2018-07-22T04:54:40.260Z,952.08
2018-07-22T04:55:40.257Z,952.11
2018-07-22T04:56:40.253Z,952.09
2018-07-22T04:57:40.251Z,952.1
2018-07-22T04:58:40.247Z,952.11
2018-07-22T04:59:40.242Z,952.16
2018-07-22T05:00:40.236Z,952.15
2018-07-22T05:01:40.234Z,952.16
2018-07-22T05:02:40.230Z,952.17
2018-07-22T05:03:40.226Z,952.17
2018-07-22T05:04:40.221Z,952.18
2018-07-22T05:05:40.219Z,952.16
2018-07-22T05:06:40.214Z,952.18
2018-07-22T05:07:40.212Z,952.21
2018-07-22T05:08:40.207Z,952.2
2018-07-22T05:09:40.203Z,952.22
2018-07-22T05:10:40.201Z,952.17
2018-07-22T05:11:40.195Z,952.2
2018-07-22T05:12:40.193Z,952.2
2018-07-22T05:13:40.189Z,952.21
2018-07-22T05:14:40.185Z,952.22
2018-07-22T05:15:40.180Z,952.21
2018-07-22T05:16:40.180Z,952.24
2018-07-22T05:17:40.177Z,952.21
2018-07-22T05:18:40.171Z,952.23
2018-07-22T05:19:40.166Z,952.23
2018-07-22T05:20:40.162Z,952.27
2018-07-22T05:21:40.159Z,952.27
2018-07-22T05:22:40.155Z,952.27
2018-07-22T05:23:40.152Z,952.28
2018-07-22T05:24:40.149Z,952.27
2018-07-22T05:25:40.144Z,952.25
2018-07-22T05:26:40.142Z,952.3
2018-07-22T05:27:40.139Z,952.29
2018-07-22T05:28:40.135Z,952.31
2018-07-22T05:29:40.132Z,952.29
2018-07-22T05:30:40.126Z,952.32
2018-07-22T05:31:40.126Z,952.32
2018-07-22T05:32:40.120Z,952.32
2018-07-22T05:33:40.116Z,952.36
2018-07-22T05:34:40.112Z,952.31
2018-07-22T05:35:40.109Z,952.33
2018-07-22T05:36:40.106Z,952.36
2018-07-22T05:37:40.102Z,952.36
2018-07-22T05:38:40.100Z,952.36
2018-07-22T05:39:40.097Z,952.34
2018-07-22T05:40:40.092Z,952.35
2018-07-22T05:41:40.088Z,952.39
2018-07-22T05:42:40.083Z,952.39
2018-07-22T05:43:40.082Z,952.41
2018-07-22T05:44:40.076Z,952.41
2018-07-22T05:45:40.074Z,952.4
2018-07-22T05:46:40.071Z,952.42
2018-07-22T05:47:40.069Z,952.41
2018-07-22T05:48:40.063Z,952.42
2018-07-22T05:49:40.059Z,952.46
2018-07-22T05:50:40.057Z,952.46
2018-07-22T05:51:40.056Z,952.5
2018-07-22T05:52:40.050Z,952.5
2018-07-22T05:53:40.050Z,952.5
2018-07-22T05:54:40.043Z,952.51
2018-07-22T05:55:40.040Z,952.52
2018-07-22T05:56:40.037Z,952.54
2018-07-22T05:57:40.032Z,952.54
2018-07-22T05:58:40.031Z,952.56
2018-07-22T05:59:40.026Z,952.56
2018-07-22T06:00:40.026Z,952.56
2018-07-22T06:01:40.020Z,952.58
2018-07-22T06:02:40.016Z,952.59
2018-07-22T06:03:40.012Z,952.6
2018-07-22T06:04:40.013Z,952.6
2018-07-22T06:05:40.006Z,952.64
2018-07-22T06:06:40.003Z,952.63
2018-07-22T06:07:39.998Z,952.63
2018-07-22T06:08:39.998Z,952.62
2018-07-22T06:09:39.996Z,952.62
2018-07-22T06:10:39.990Z,952.61
2018-07-22T06:11:39.990Z,952.63
2018-07-22T06:12:39.983Z,952.63
2018-07-22T06:13:39.979Z,952.61
2018-07-22T06:14:39.977Z,952.61
2018-07-22T06:15:39.975Z,952.57
2018-07-22T06:16:39.984Z,952.6
2018-07-22T06:17:39.992Z,952.61
2018-07-22T06:18:39.967Z,952.58
2018-07-22T06:19:39.960Z,952.62
2018-07-22T06:20:39.958Z,952.61
2018-07-22T06:21:39.955Z,952.61
2018-07-22T06:22:39.951Z,952.62
2018-07-22T06:23:39.948Z,952.62
2018-07-22T06:24:39.943Z,952.63
2018-07-22T06:25:39.942Z,952.63
2018-07-22T06:26:39.937Z,952.62
2018-07-22T06:27:39.934Z,952.61
2018-07-22T06:28:39.930Z,952.63
2018-07-22T06:29:39.927Z,952.62
2018-07-22T06:30:39.924Z,952.64
2018-07-22T06:31:39.921Z,952.64
2018-07-22T06:32:39.918Z,952.63
2018-07-22T06:33:39.914Z,952.63
2018-07-22T06:34:39.910Z,952.63
2018-07-22T06:35:39.908Z,952.62
2018-07-22T06:36:39.905Z,952.63
2018-07-22T06:37:39.904Z,952.61
2018-07-22T06:38:39.898Z,952.65
2018-07-22T06:39:39.895Z,952.62
2018-07-22T06:40:39.895Z,952.64
2018-07-22T06:41:39.889Z,952.6
2018-07-22T06:42:39.885Z,952.65
2018-07-22T06:43:39.883Z,952.66
2018-07-22T06:44:39.877Z,952.63
2018-07-22T06:45:39.876Z,952.67
2018-07-22T06:46:39.908Z,952.69
2018-07-22T06:47:39.869Z,952.62
2018-07-22T06:48:39.867Z,952.7
2018-07-22T06:49:39.864Z,952.69
2018-07-22T06:50:39.857Z,952.69
2018-07-22T06:51:39.854Z,952.7
2018-07-22T06:52:39.852Z,952.66
2018-07-22T06:53:39.900Z,952.65
2018-07-22T06:54:39.845Z,952.68
2018-07-22T06:55:39.852Z,952.7
2018-07-22T06:56:39.839Z,952.71
2018-07-22T06:57:39.835Z,952.68
2018-07-22T06:58:39.832Z,952.67
2018-07-22T06:59:39.830Z,952.69
2018-07-22T07:00:39.826Z,952.73
2018-07-22T07:01:39.821Z,952.69
2018-07-22T07:02:39.820Z,952.72
2018-07-22T07:03:39.824Z,952.73
2018-07-22T07:04:39.814Z,952.76
2018-07-22T07:05:39.810Z,952.74
2018-07-22T07:06:39.807Z,952.76
2018-07-22T07:07:39.801Z,952.75
2018-07-22T07:08:39.866Z,952.7
2018-07-22T07:09:39.796Z,952.77
2018-07-22T07:10:39.795Z,952.75
2018-07-22T07:11:39.791Z,952.77
2018-07-22T07:12:39.790Z,952.72
2018-07-22T07:13:39.783Z,952.78
2018-07-22T07:14:39.781Z,952.74
2018-07-22T07:15:39.777Z,952.77
2018-07-22T07:16:39.774Z,952.76
2018-07-22T07:17:39.770Z,952.78
2018-07-22T07:18:39.768Z,952.81
2018-07-22T07:19:39.763Z,952.79
2018-07-22T07:20:39.760Z,952.8
2018-07-22T07:21:39.758Z,952.82
2018-07-22T07:22:39.754Z,952.79
2018-07-22T07:23:39.752Z,952.8
2018-07-22T07:24:39.749Z,952.77
2018-07-22T07:25:39.743Z,952.79
2018-07-22T07:26:39.763Z,952.77
2018-07-22T07:27:39.740Z,952.81
2018-07-22T07:28:39.737Z,952.76
2018-07-22T07:29:39.734Z,952.79
2018-07-22T07:30:39.730Z,952.82
2018-07-22T07:31:39.727Z,952.81
2018-07-22T07:32:39.726Z,952.77
2018-07-22T07:33:39.748Z,952.8
2018-07-22T07:34:39.721Z,952.84
2018-07-22T07:35:39.718Z,952.83
2018-07-22T07:36:39.712Z,952.82
2018-07-22T07:37:39.708Z,952.76
2018-07-22T07:38:39.706Z,952.81
2018-07-22T07:39:39.704Z,952.77
2018-07-22T07:40:39.701Z,952.78
2018-07-22T07:41:39.697Z,952.79
2018-07-22T07:42:39.694Z,952.79
2018-07-22T07:43:39.691Z,952.77
2018-07-22T07:44:39.688Z,952.79
2018-07-22T07:45:39.685Z,952.81
2018-07-22T07:46:39.685Z,952.79
2018-07-22T07:47:39.680Z,952.84
2018-07-22T07:48:39.675Z,952.82
2018-07-22T07:49:39.676Z,952.82
2018-07-22T07:50:39.670Z,952.82
2018-07-22T07:51:39.667Z,952.82
2018-07-22T07:52:39.665Z,952.85
2018-07-22T07:53:39.665Z,952.83
2018-07-22T07:54:39.659Z,952.81
2018-07-22T07:55:39.656Z,952.81
2018-07-22T07:56:39.653Z,952.83
2018-07-22T07:57:39.650Z,952.82
2018-07-22T07:58:39.647Z,952.83
2018-07-22T07:59:39.643Z,952.8
2018-07-22T08:00:39.640Z,952.81
2018-07-22T08:01:39.639Z,952.85
2018-07-22T08:02:39.635Z,952.86
2018-07-22T08:03:39.634Z,952.84
2018-07-22T08:04:39.630Z,952.77
2018-07-22T08:05:39.667Z,952.81
2018-07-22T08:06:39.624Z,952.83
2018-07-22T08:07:39.621Z,952.85
2018-07-22T08:08:39.617Z,952.85
2018-07-22T08:09:39.615Z,952.84
2018-07-22T08:10:39.612Z,952.86
2018-07-22T08:11:39.669Z,952.88
2018-07-22T08:12:39.606Z,952.87
2018-07-22T08:13:39.604Z,952.85
2018-07-22T08:14:39.600Z,952.88
2018-07-22T08:15:39.598Z,952.85
2018-07-22T08:16:39.599Z,952.89
2018-07-22T08:17:39.592Z,952.85
2018-07-22T08:18:39.591Z,952.85
2018-07-22T08:19:39.587Z,952.87
2018-07-22T08:20:39.586Z,952.87
2018-07-22T08:21:39.728Z,952.86
2018-07-22T08:22:39.580Z,952.87
2018-07-22T08:23:39.576Z,952.83
2018-07-22T08:24:39.575Z,952.87
2018-07-22T08:25:39.571Z,952.85
2018-07-22T08:26:39.570Z,952.84
2018-07-22T08:27:39.568Z,952.87
2018-07-22T08:28:39.565Z,952.89
2018-07-22T08:29:39.561Z,952.87
2018-07-22T08:30:39.559Z,952.86
2018-07-22T08:31:39.558Z,952.9
2018-07-22T08:32:39.553Z,952.88
2018-07-22T08:33:39.550Z,952.91
2018-07-22T08:34:39.548Z,952.89
2018-07-22T08:35:39.546Z,952.89
2018-07-22T08:36:39.543Z,952.88
2018-07-22T08:37:39.541Z,952.9
2018-07-22T08:38:39.543Z,952.9
2018-07-22T08:39:39.536Z,952.86
2018-07-22T08:40:39.539Z,952.89
2018-07-22T08:41:39.654Z,952.86
2018-07-22T08:42:39.534Z,952.89
2018-07-22T08:43:39.534Z,952.94
2018-07-22T08:44:39.527Z,952.89
2018-07-22T08:45:39.523Z,952.9
2018-07-22T08:46:39.523Z,952.92
2018-07-22T08:47:39.554Z,952.94
2018-07-22T08:48:39.517Z,952.92
2018-07-22T08:49:39.517Z,952.88
2018-07-22T08:50:39.514Z,952.92
2018-07-22T08:51:39.511Z,952.91
2018-07-22T08:52:39.510Z,952.92
2018-07-22T08:53:39.516Z,952.91
2018-07-22T08:54:39.504Z,952.94
2018-07-22T08:55:39.504Z,952.93
2018-07-22T08:56:39.500Z,952.93
2018-07-22T08:57:39.500Z,952.93
2018-07-22T08:58:39.498Z,952.94
2018-07-22T08:59:39.496Z,952.95
2018-07-22T09:00:39.502Z,952.95
2018-07-22T09:01:39.492Z,952.97
2018-07-22T09:02:39.496Z,952.93
2018-07-22T09:03:39.490Z,952.95
2018-07-22T09:04:39.490Z,952.93
2018-07-22T09:05:39.487Z,952.95
2018-07-22T09:06:39.486Z,953
2018-07-22T09:07:39.485Z,952.95
2018-07-22T09:08:39.486Z,952.99
2018-07-22T09:09:39.481Z,952.97
2018-07-22T09:10:39.481Z,953.01
2018-07-22T09:11:39.499Z,952.98
2018-07-22T09:12:39.477Z,953.01
2018-07-22T09:13:39.478Z,953.07
2018-07-22T09:14:39.476Z,953.06
2018-07-22T09:15:39.475Z,953.05
2018-07-22T09:16:39.473Z,953.06
2018-07-22T09:17:39.496Z,953.1
2018-07-22T09:18:39.471Z,953.08
2018-07-22T09:19:39.471Z,953.11
2018-07-22T09:20:39.469Z,953.11
2018-07-22T09:21:39.467Z,953.11
2018-07-22T09:22:39.466Z,953.11
2018-07-22T09:23:39.466Z,953.09
2018-07-22T09:24:39.465Z,953.14
2018-07-22T09:25:39.469Z,953.11
2018-07-22T09:26:39.464Z,953.12
2018-07-22T09:27:39.465Z,953.15
2018-07-22T09:28:39.462Z,953.18
2018-07-22T09:29:39.462Z,953.14
2018-07-22T09:30:39.462Z,953.17
2018-07-22T09:31:39.460Z,953.15
2018-07-22T09:32:39.465Z,953.17
2018-07-22T09:33:39.460Z,953.17
2018-07-22T09:34:39.458Z,953.17
2018-07-22T09:35:39.458Z,953.14
2018-07-22T09:36:39.547Z,953.19
2018-07-22T09:37:39.459Z,953.16
2018-07-22T09:38:39.458Z,953.18
2018-07-22T09:39:39.458Z,953.19
2018-07-22T09:40:39.458Z,953.18
2018-07-22T09:41:39.458Z,953.21
2018-07-22T09:42:39.457Z,953.2
2018-07-22T09:43:39.458Z,953.21
2018-07-22T09:44:39.458Z,953.23
2018-07-22T09:45:39.458Z,953.25
2018-07-22T09:46:39.459Z,953.26
2018-07-22T09:47:39.458Z,953.26
2018-07-22T09:48:39.458Z,953.23
2018-07-22T09:49:39.458Z,953.26
2018-07-22T09:50:39.459Z,953.23
2018-07-22T09:51:39.460Z,953.24
2018-07-22T09:52:39.460Z,953.25
2018-07-22T09:53:39.465Z,953.25
2018-07-22T09:54:39.461Z,953.24
2018-07-22T09:55:39.462Z,953.21
2018-07-22T09:56:39.461Z,953.24
2018-07-22T09:57:39.462Z,953.2
2018-07-22T09:58:39.464Z,953.24
2018-07-22T09:59:39.465Z,953.18
2018-07-22T10:00:39.465Z,953.24
2018-07-22T10:01:39.467Z,953.26
2018-07-22T10:02:39.472Z,953.27
2018-07-22T10:03:39.470Z,953.23
2018-07-22T10:04:39.472Z,953.22
2018-07-22T10:05:39.472Z,953.24
2018-07-22T10:06:39.472Z,953.25
2018-07-22T10:07:39.473Z,953.25
2018-07-22T10:08:39.473Z,953.22
2018-07-22T10:09:39.476Z,953.24
2018-07-22T10:10:39.478Z,953.25
2018-07-22T10:11:39.479Z,953.26
2018-07-22T10:12:39.481Z,953.28
2018-07-22T10:13:39.481Z,953.28
2018-07-22T10:14:39.623Z,953.29
2018-07-22T10:15:39.485Z,953.3
2018-07-22T10:16:39.486Z,953.21
2018-07-22T10:17:39.565Z,953.23
2018-07-22T10:18:39.493Z,953.26
2018-07-22T10:19:39.492Z,953.27
2018-07-22T10:20:39.496Z,953.23
2018-07-22T10:21:39.497Z,953.24
2018-07-22T10:22:39.498Z,953.21
2018-07-22T10:23:39.500Z,953.23
2018-07-22T10:24:39.504Z,953.23
2018-07-22T10:25:39.507Z,953.27
2018-07-22T10:26:39.512Z,953.25
2018-07-22T10:27:39.511Z,953.29
2018-07-22T10:28:39.571Z,953.3
2018-07-22T10:29:39.515Z,953.31
2018-07-22T10:30:39.518Z,953.37
2018-07-22T10:31:39.521Z,953.32
2018-07-22T10:32:39.525Z,953.33
2018-07-22T10:33:39.527Z,953.32
2018-07-22T10:34:39.530Z,953.28
2018-07-22T10:35:39.533Z,953.31
2018-07-22T10:36:39.539Z,953.3
2018-07-22T10:37:39.541Z,953.25
2018-07-22T10:38:39.543Z,953.32
2018-07-22T10:39:39.546Z,953.28
2018-07-22T10:40:39.555Z,953.33
2018-07-22T10:41:39.555Z,953.35
2018-07-22T10:42:39.555Z,953.28
2018-07-22T10:43:39.560Z,953.27
2018-07-22T10:44:39.562Z,953.28
2018-07-22T10:45:39.564Z,953.26
2018-07-22T10:46:39.568Z,953.25
2018-07-22T10:47:39.573Z,953.28
2018-07-22T10:48:39.574Z,953.33
2018-07-22T10:49:39.577Z,953.33
2018-07-22T10:50:39.581Z,953.28
2018-07-22T10:51:39.585Z,953.28
2018-07-22T10:52:39.589Z,953.29
2018-07-22T10:53:39.591Z,953.26
2018-07-22T10:54:39.592Z,953.31
2018-07-22T10:55:39.596Z,953.29
2018-07-22T10:56:39.599Z,953.27
2018-07-22T10:57:39.602Z,953.31
2018-07-22T10:58:39.604Z,953.26
2018-07-22T10:59:39.608Z,953.3
2018-07-22T11:00:39.611Z,953.31
2018-07-22T11:01:39.612Z,953.32
2018-07-22T11:02:39.613Z,953.29
2018-07-22T11:03:39.618Z,953.31
2018-07-22T11:04:39.620Z,953.32
2018-07-22T11:05:39.622Z,953.34
2018-07-22T11:06:39.622Z,953.29
2018-07-22T11:07:39.625Z,953.32
2018-07-22T11:08:39.628Z,953.28
2018-07-22T11:09:39.629Z,953.27
2018-07-22T11:10:39.632Z,953.31
2018-07-22T11:11:39.633Z,953.34
2018-07-22T11:12:39.635Z,953.29
2018-07-22T11:13:39.638Z,953.29
2018-07-22T11:14:39.756Z,953.3
2018-07-22T11:15:39.642Z,953.28
2018-07-22T11:16:39.643Z,953.32
2018-07-22T11:17:39.645Z,953.27
2018-07-22T11:18:39.648Z,953.28
2018-07-22T11:19:39.650Z,953.27
2018-07-22T11:20:39.652Z,953.28
2018-07-22T11:21:39.654Z,953.29
2018-07-22T11:22:39.656Z,953.29
2018-07-22T11:23:39.658Z,953.31
2018-07-22T11:24:39.659Z,953.29
2018-07-22T11:25:39.660Z,953.33
2018-07-22T11:26:39.666Z,953.33
2018-07-22T11:27:39.668Z,953.38
2018-07-22T11:28:39.702Z,953.35
2018-07-22T11:29:39.670Z,953.32
2018-07-22T11:30:39.676Z,953.34
2018-07-22T11:31:39.674Z,953.34
2018-07-22T11:32:39.677Z,953.3
2018-07-22T11:33:39.678Z,953.36
2018-07-22T11:34:39.678Z,953.35
2018-07-22T11:35:39.681Z,953.36
2018-07-22T11:36:39.684Z,953.35
2018-07-22T11:37:39.684Z,953.37
2018-07-22T11:38:39.687Z,953.38
2018-07-22T11:39:39.696Z,953.38
2018-07-22T11:40:39.691Z,953.34
2018-07-22T11:41:39.692Z,953.33
2018-07-22T11:42:39.694Z,953.33
2018-07-22T11:43:39.697Z,953.37
2018-07-22T11:44:39.698Z,953.35
2018-07-22T11:45:39.701Z,953.34
2018-07-22T11:46:39.702Z,953.36
2018-07-22T11:47:39.705Z,953.35
2018-07-22T11:48:39.707Z,953.37
2018-07-22T11:49:39.710Z,953.34
2018-07-22T11:50:39.767Z,953.35
2018-07-22T11:51:39.713Z,953.37
2018-07-22T11:52:39.718Z,953.34
2018-07-22T11:53:39.722Z,953.33
2018-07-22T11:54:39.721Z,953.32
2018-07-22T11:55:39.725Z,953.29
2018-07-22T11:56:39.728Z,953.3
2018-07-22T11:57:39.728Z,953.3
2018-07-22T11:58:39.742Z,953.29
2018-07-22T11:59:39.735Z,953.34
2018-07-22T12:00:39.738Z,953.29
2018-07-22T12:01:39.739Z,953.33
2018-07-22T12:02:39.755Z,953.39
2018-07-22T12:03:39.744Z,953.33
2018-07-22T12:04:39.747Z,953.35
2018-07-22T12:05:39.750Z,953.36
2018-07-22T12:06:39.752Z,953.37
2018-07-22T12:07:39.772Z,953.36
2018-07-22T12:08:39.758Z,953.36
2018-07-22T12:09:39.760Z,953.35
2018-07-22T12:10:39.763Z,953.37
2018-07-22T12:11:39.776Z,953.39
2018-07-22T12:12:39.863Z,953.4
2018-07-22T12:13:39.772Z,953.35
2018-07-22T12:14:39.774Z,953.37
2018-07-22T12:15:39.776Z,953.35
2018-07-22T12:16:39.779Z,953.39
2018-07-22T12:17:39.781Z,953.37
2018-07-22T12:18:39.787Z,953.35
2018-07-22T12:19:39.786Z,953.36
2018-07-22T12:20:39.791Z,953.37
2018-07-22T12:21:39.793Z,953.31
2018-07-22T12:22:39.795Z,953.3
2018-07-22T12:23:39.799Z,953.27
2018-07-22T12:24:39.802Z,953.25
2018-07-22T12:25:39.805Z,953.29
2018-07-22T12:26:39.809Z,953.29
2018-07-22T12:27:39.811Z,953.28
2018-07-22T12:28:39.814Z,953.29
2018-07-22T12:29:39.818Z,953.26
2018-07-22T12:30:39.820Z,953.25